Time;durP1;ratioP1;P1;durP2;ratioP2;P2;SDS_P1;SDS_P2;PMS_P1;PMS_P2;Temp;Humidity;BMP_temperature;BMP_pressure;BME280_temperature;BME280_humidity;BME280_pressure;Samples;Min_cycle;Max_cycle;Signal;HPM_P1;HPM_P2
2023/07/26 00:00:37;;;;;;;60.90;57.10;;;;;;;28.21;100.00;99540.44;5041676;28;20051;-77
2023/07/26 00:03:04;;;;;;;48.10;44.60;;;;;;;28.23;100.00;99538.16;5043573;28;20042;-77
2023/07/26 00:05:31;;;;;;;50.55;47.25;;;;;;;28.18;100.00;99530.22;5042660;28;20038;-81
2023/07/26 00:07:58;;;;;;;53.90;50.30;;;;;;;28.07;100.00;99537.34;5042103;28;20157;-81
2023/07/26 00:10:26;;;;;;;51.97;48.28;;;;;;;28.21;100.00;99529.50;5045693;28;20037;-81
2023/07/26 00:12:53;;;;;;;58.80;54.90;;;;;;;28.23;100.00;99532.69;5040251;28;20041;-81
2023/07/26 00:15:20;;;;;;;60.40;56.30;;;;;;;28.23;100.00;99529.13;5038745;28;20053;-81
2023/07/26 00:17:47;;;;;;;55.10;50.83;;;;;;;28.18;100.00;99522.03;5039708;28;20076;-81
2023/07/26 00:20:14;;;;;;;52.42;48.63;;;;;;;28.17;100.00;99514.19;5047652;28;20057;-81
2023/07/26 00:22:41;;;;;;;49.95;45.72;;;;;;;28.26;100.00;99514.78;5046811;28;20060;-81
2023/07/26 00:25:08;;;;;;;48.17;44.70;;;;;;;28.30;100.00;99512.94;5048085;28;20500;-81
2023/07/26 00:27:36;;;;;;;50.67;46.97;;;;;;;28.29;100.00;99509.44;5048916;28;20041;-81
2023/07/26 00:30:04;;;;;;;45.47;41.95;;;;;;;28.27;100.00;99514.44;5049338;28;20493;-81
2023/07/26 00:32:31;;;;;;;45.70;42.30;;;;;;;28.33;100.00;99506.78;5043164;28;20128;-81
2023/07/26 00:34:58;;;;;;;43.55;40.20;;;;;;;28.30;100.00;99507.50;5041676;28;20049;-80
2023/07/26 00:37:25;;;;;;;44.80;41.80;;;;;;;28.28;100.00;99501.59;5042410;28;20048;-81
2023/07/26 00:39:51;;;;;;;49.35;45.72;;;;;;;28.31;100.00;99496.19;5046358;28;20052;-80
2023/07/26 00:42:19;;;;;;;44.83;41.20;;;;;;;28.40;100.00;99490.56;5043325;28;20048;-81
2023/07/26 00:44:47;;;;;;;43.67;40.42;;;;;;;28.33;100.00;99484.94;5045503;28;20110;-81
2023/07/26 00:47:17;;;;;;;41.92;38.20;;;;;;;28.39;100.00;99491.72;5039664;28;20436;-81
2023/07/26 00:49:50;;;;;;;43.55;40.10;;;;;;;28.35;100.00;99488.09;5046830;28;20045;-81
2023/07/26 00:52:18;;;;;;;45.03;41.33;;;;;;;28.20;100.00;99487.00;5039901;28;20057;-81
2023/07/26 00:54:45;;;;;;;44.33;40.70;;;;;;;28.18;100.00;99485.75;5046396;28;20045;-81
2023/07/26 00:57:11;;;;;;;43.25;39.97;;;;;;;28.20;100.00;99478.81;5041867;28;20056;-81
2023/07/26 00:59:38;;;;;;;45.63;42.65;;;;;;;28.17;100.00;99478.69;5045214;28;20500;-81
2023/07/26 01:02:07;;;;;;;45.17;42.25;;;;;;;28.14;100.00;99479.41;5046691;28;20410;-81
2023/07/26 01:04:34;;;;;;;41.58;38.53;;;;;;;28.03;100.00;99481.88;5040367;28;20049;-81
2023/07/26 01:07:11;;;;;;;42.97;39.30;;;;;;;28.04;100.00;99470.59;5042443;28;20052;-81
2023/07/26 01:09:45;;;;;;;42.53;39.00;;;;;;;28.06;100.00;99476.50;5041594;28;20064;-81
2023/07/26 01:12:19;;;;;;;42.85;39.15;;;;;;;28.04;100.00;99478.00;5044962;28;20045;-81
2023/07/26 01:14:53;;;;;;;48.97;45.53;;;;;;;28.01;100.00;99474.03;5040231;28;20526;-81
2023/07/26 01:17:21;;;;;;;47.03;43.60;;;;;;;28.06;100.00;99467.53;5043338;28;20084;-80
2023/07/26 01:19:48;;;;;;;54.42;50.70;;;;;;;28.07;100.00;99469.13;5042130;28;20045;-81
2023/07/26 01:22:17;;;;;;;47.08;43.38;;;;;;;28.08;100.00;99468.78;5041930;28;20049;-81
2023/07/26 01:24:44;;;;;;;41.88;38.22;;;;;;;28.11;100.00;99469.19;5040142;28;20497;-80
2023/07/26 01:27:11;;;;;;;43.58;40.35;;;;;;;28.15;100.00;99462.69;5042784;28;20737;-81
2023/07/26 01:29:38;;;;;;;47.83;44.63;;;;;;;28.18;100.00;99455.72;5042681;28;20051;-81
2023/07/26 01:32:07;;;;;;;46.80;42.72;;;;;;;28.26;100.00;99460.19;5048572;28;20041;-81
2023/07/26 01:34:35;;;;;;;41.67;38.45;;;;;;;28.17;100.00;99457.69;5038924;28;20072;-81
2023/07/26 01:37:02;;;;;;;40.90;37.80;;;;;;;28.13;100.00;99456.78;5039585;28;20051;-80
2023/07/26 01:39:31;;;;;;;48.25;45.00;;;;;;;28.19;100.00;99451.84;5042766;28;20524;-78
2023/07/26 01:41:59;;;;;;;43.30;39.97;;;;;;;28.16;100.00;99453.34;5042605;28;20052;-77
2023/07/26 01:44:26;;;;;;;41.65;38.50;;;;;;;28.16;100.00;99456.06;5045712;28;20448;-81
2023/07/26 01:46:53;;;;;;;35.60;32.90;;;;;;;28.28;100.00;99460.63;5039513;28;20060;-77
2023/07/26 01:49:21;;;;;;;36.90;33.95;;;;;;;28.13;100.00;99450.53;5043559;28;20045;-80
2023/07/26 01:51:48;;;;;;;40.55;37.35;;;;;;;28.14;100.00;99446.66;5042486;28;20464;-80
2023/07/26 01:54:16;;;;;;;43.40;40.38;;;;;;;28.02;100.00;99442.91;5041289;28;20056;-81
2023/07/26 01:56:44;;;;;;;45.20;41.65;;;;;;;27.97;100.00;99448.63;5042077;28;20041;-81
2023/07/26 01:59:11;;;;;;;46.70;43.03;;;;;;;27.90;100.00;99453.09;5042511;28;20504;-81
2023/07/26 02:01:38;;;;;;;51.28;47.75;;;;;;;27.80;100.00;99457.16;5042841;28;20056;-81
2023/07/26 02:04:05;;;;;;;49.88;46.17;;;;;;;27.72;100.00;99455.38;5039941;28;20041;-81
2023/07/26 02:06:32;;;;;;;43.45;39.78;;;;;;;27.43;100.00;99454.63;5041206;28;20049;-81
2023/07/26 02:08:59;;;;;;;45.83;42.10;;;;;;;27.29;100.00;99459.69;5045274;28;20044;-77
2023/07/26 02:11:26;;;;;;;45.70;42.72;;;;;;;27.48;100.00;99459.03;5041377;28;20037;-78
2023/07/26 02:13:54;;;;;;;51.60;47.47;;;;;;;28.19;100.00;99449.13;5043257;28;20049;-77
2023/07/26 02:16:21;;;;;;;46.35;42.83;;;;;;;28.93;100.00;99458.19;5040966;28;20057;-77
2023/07/26 02:18:48;;;;;;;39.63;36.60;;;;;;;27.72;100.00;99477.97;5046811;28;20045;-77
2023/07/26 02:21:16;;;;;;;50.45;46.83;;;;;;;27.45;100.00;99467.94;5039853;28;20123;-77
2023/07/26 02:23:42;;;;;;;45.53;41.90;;;;;;;27.28;100.00;99471.75;5038734;28;20410;-77
2023/07/26 02:26:09;;;;;;;43.38;39.90;;;;;;;27.02;100.00;99472.97;5035156;28;20497;-77
2023/07/26 02:28:36;;;;;;;41.97;38.75;;;;;;;26.99;100.00;99468.22;5041305;28;20055;-78
2023/07/26 02:31:04;;;;;;;45.28;41.78;;;;;;;27.02;100.00;99477.59;5045272;28;20141;-77
2023/07/26 02:33:31;;;;;;;45.97;41.97;;;;;;;27.06;100.00;99475.78;5038034;28;20049;-77
2023/07/26 02:35:59;;;;;;;51.38;47.63;;;;;;;27.18;100.00;99478.50;5040457;28;20051;-77
2023/07/26 02:38:26;;;;;;;38.97;35.95;;;;;;;27.04;100.00;99476.13;5035811;28;20136;-77
2023/07/26 02:40:53;;;;;;;40.88;37.58;;;;;;;26.94;100.00;99482.06;5040246;28;20044;-77
2023/07/26 02:43:20;;;;;;;47.10;43.58;;;;;;;26.87;100.00;99479.13;5036421;28;20049;-77
2023/07/26 02:45:47;;;;;;;39.58;36.35;;;;;;;26.60;100.00;99480.69;5041835;28;20041;-80
2023/07/26 02:48:15;;;;;;;44.55;40.97;;;;;;;26.52;100.00;99474.22;5036635;28;20077;-80
2023/07/26 02:50:43;;;;;;;42.60;39.08;;;;;;;26.63;100.00;99480.78;5042119;28;20053;-80
2023/07/26 02:53:10;;;;;;;37.10;33.92;;;;;;;26.49;100.00;99483.06;5034806;28;20068;-80
2023/07/26 02:55:36;;;;;;;33.40;30.23;;;;;;;26.41;100.00;99475.78;5044819;28;20049;-80
2023/07/26 02:58:03;;;;;;;37.80;34.13;;;;;;;26.39;100.00;99483.50;5038144;28;20049;-80
2023/07/26 03:00:30;;;;;;;35.88;32.97;;;;;;;26.31;100.00;99487.91;5043023;28;20553;-80
2023/07/26 03:02:57;;;;;;;33.90;30.67;;;;;;;26.45;100.00;99479.41;5036092;28;20513;-77
2023/07/26 03:05:25;;;;;;;34.30;31.35;;;;;;;26.40;100.00;99479.63;5041775;28;20037;-77
2023/07/26 03:07:52;;;;;;;30.27;27.08;;;;;;;26.09;100.00;99489.16;5044491;28;20124;-77
2023/07/26 03:10:22;;;;;;;29.85;26.80;;;;;;;26.53;100.00;99483.16;5043599;28;20063;-79
2023/07/26 03:12:52;;;;;;;31.50;26.90;;;;;;;26.56;100.00;99487.94;5037782;28;20050;-79
2023/07/26 03:15:19;;;;;;;30.85;26.30;;;;;;;26.52;100.00;99487.03;5039628;28;20138;-80
2023/07/26 03:17:45;;;;;;;29.48;26.23;;;;;;;26.60;100.00;99488.84;5036379;28;20428;-77
2023/07/26 03:20:13;;;;;;;30.13;26.08;;;;;;;26.33;100.00;99493.81;5043641;28;20048;-77
2023/07/26 03:22:41;;;;;;;31.05;27.77;;;;;;;26.09;100.00;99499.25;5036316;28;20571;-77
2023/07/26 03:25:09;;;;;;;30.98;27.60;;;;;;;26.48;100.00;99495.84;5036470;28;20167;-80
2023/07/26 03:27:36;;;;;;;30.08;26.38;;;;;;;26.85;100.00;99492.31;5037462;28;20445;-79
2023/07/26 03:30:02;;;;;;;30.65;27.40;;;;;;;26.61;100.00;99499.38;5036963;28;20049;-77
2023/07/26 03:32:29;;;;;;;31.35;28.10;;;;;;;26.68;100.00;99502.31;5042053;28;20115;-78
2023/07/26 03:34:56;;;;;;;30.40;27.38;;;;;;;27.07;100.00;99497.22;5039049;28;20503;-77
2023/07/26 03:37:23;;;;;;;31.65;28.45;;;;;;;26.94;100.00;99495.69;5037131;28;20119;-80
2023/07/26 03:39:51;;;;;;;31.88;28.77;;;;;;;26.70;100.00;99494.59;5042213;28;20512;-79
2023/07/26 03:42:18;;;;;;;31.30;28.30;;;;;;;25.88;100.00;99507.50;5035888;28;20049;-77
2023/07/26 03:44:45;;;;;;;30.98;27.80;;;;;;;26.08;100.00;99516.69;5040939;28;20049;-79
2023/07/26 03:47:12;;;;;;;32.20;27.77;;;;;;;26.11;100.00;99516.81;5037133;28;20124;-78
2023/07/26 03:49:42;;;;;;;32.67;29.50;;;;;;;26.60;100.00;99516.06;5038862;28;20103;-80
2023/07/26 03:52:09;;;;;;;33.58;26.95;;;;;;;26.80;100.00;99514.31;5035663;28;20073;-77
2023/07/26 03:54:36;;;;;;;31.20;27.70;;;;;;;26.91;100.00;99510.78;5041889;28;20421;-77
2023/07/26 03:57:04;;;;;;;31.73;28.27;;;;;;;26.47;100.00;99526.13;5044000;28;20046;-77
2023/07/26 03:59:31;;;;;;;30.48;27.55;;;;;;;26.88;100.00;99521.56;5040385;28;20053;-77
2023/07/26 04:01:58;;;;;;;32.10;28.70;;;;;;;27.27;100.00;99525.47;5044823;28;20044;-80
2023/07/26 04:04:25;;;;;;;35.30;27.80;;;;;;;26.91;100.00;99529.84;5038388;28;20048;-80
2023/07/26 04:06:52;;;;;;;31.17;26.92;;;;;;;27.35;100.00;99530.00;5038413;28;20055;-79
2023/07/26 04:09:18;;;;;;;30.77;27.50;;;;;;;27.78;100.00;99528.44;5036760;28;20051;-77
2023/07/26 04:11:45;;;;;;;29.48;26.48;;;;;;;27.81;100.00;99535.91;5038733;28;20060;-80
2023/07/26 04:14:14;;;;;;;32.20;28.80;;;;;;;27.95;100.00;99532.75;5033770;28;20045;-80
2023/07/26 04:16:41;;;;;;;30.05;27.08;;;;;;;27.95;100.00;99537.41;5041503;28;20507;-78
2023/07/26 04:19:08;;;;;;;30.13;27.08;;;;;;;27.86;100.00;99526.66;5044099;28;21556;-80
2023/07/26 04:21:34;;;;;;;30.15;27.05;;;;;;;27.93;100.00;99521.41;5043917;28;20045;-77
2023/07/26 04:24:01;;;;;;;29.83;26.88;;;;;;;28.02;100.00;99519.31;5042415;28;20493;-80
2023/07/26 04:26:28;;;;;;;32.03;27.42;;;;;;;27.79;100.00;99523.75;5044097;28;20054;-80
2023/07/26 04:28:55;;;;;;;28.60;25.55;;;;;;;27.66;100.00;99528.47;5037556;28;20043;-77
2023/07/26 04:31:23;;;;;;;29.30;26.25;;;;;;;27.90;100.00;99537.66;5042760;28;20428;-77
2023/07/26 04:33:50;;;;;;;31.77;26.20;;;;;;;27.99;100.00;99527.38;5037712;28;20068;-77
2023/07/26 04:36:17;;;;;;;29.58;26.60;;;;;;;27.59;100.00;99553.59;5039121;28;20056;-80
2023/07/26 04:38:44;;;;;;;30.95;25.38;;;;;;;27.54;100.00;99559.31;5045280;28;20052;-80
2023/07/26 04:41:11;;;;;;;28.33;25.08;;;;;;;28.03;100.00;99559.09;5039715;28;20083;-80
2023/07/26 04:43:38;;;;;;;30.15;27.10;;;;;;;27.99;100.00;99541.84;5039512;28;20049;-80
2023/07/26 04:46:05;;;;;;;31.95;26.30;;;;;;;27.95;100.00;99521.03;5039410;28;20460;-80
2023/07/26 04:48:33;;;;;;;34.72;28.20;;;;;;;27.72;100.00;99529.00;5040413;28;20050;-80
2023/07/26 04:51:00;;;;;;;29.55;26.35;;;;;;;27.88;100.00;99575.44;5038479;28;20041;-80
2023/07/26 04:53:27;;;;;;;32.95;26.92;;;;;;;27.95;100.00;99573.69;5046268;28;20045;-79
2023/07/26 04:55:53;;;;;;;33.35;30.02;;;;;;;28.04;100.00;99559.88;5044577;28;20548;-77
2023/07/26 04:58:23;;;;;;;32.63;29.15;;;;;;;28.03;100.00;99570.00;5041691;28;20042;-77
2023/07/26 05:00:50;;;;;;;35.23;31.53;;;;;;;27.86;100.00;99576.56;4692437;28;9999666;-78
2023/07/26 05:03:17;;;;;;;32.72;29.33;;;;;;;28.05;100.00;99573.19;5040749;28;20425;-78
2023/07/26 05:05:49;;;;;;;34.38;30.80;;;;;;;28.13;100.00;99578.81;5043056;28;20048;-77
2023/07/26 05:08:16;;;;;;;31.75;28.63;;;;;;;28.04;100.00;99574.31;5041783;28;20136;-78
2023/07/26 05:10:44;;;;;;;36.38;29.35;;;;;;;28.23;100.00;99562.72;5036222;28;20057;-80
2023/07/26 05:13:11;;;;;;;31.17;27.85;;;;;;;28.29;100.00;99555.03;5041193;28;20053;-81
2023/07/26 05:15:38;;;;;;;30.20;26.98;;;;;;;28.34;100.00;99551.25;5038535;28;20263;-80
2023/07/26 05:18:05;;;;;;;33.85;29.20;;;;;;;28.31;100.00;99555.47;5040159;28;20044;-81
2023/07/26 05:20:31;;;;;;;31.92;28.77;;;;;;;28.30;100.00;99568.34;5038691;28;20075;-81
2023/07/26 05:23:00;;;;;;;35.30;31.30;;;;;;;28.48;100.00;99574.25;5037813;28;20048;-80
2023/07/26 05:25:27;;;;;;;29.58;26.52;;;;;;;28.53;100.00;99565.81;5040766;28;20468;-80
2023/07/26 05:27:55;;;;;;;30.85;27.50;;;;;;;28.59;100.00;99560.06;5041265;28;20417;-80
2023/07/26 05:30:21;;;;;;;31.60;28.30;;;;;;;28.79;100.00;99552.72;5036422;28;20049;-80
2023/07/26 05:32:48;;;;;;;31.73;27.02;;;;;;;28.85;100.00;99552.06;5039547;28;20581;-81
2023/07/26 05:35:16;;;;;;;30.65;27.63;;;;;;;29.03;100.00;99548.97;5039978;28;20450;-80
2023/07/26 05:37:43;;;;;;;34.65;28.30;;;;;;;29.16;100.00;99539.47;5038823;28;20057;-80
2023/07/26 05:40:12;;;;;;;31.77;28.10;;;;;;;29.27;100.00;99548.69;5039643;28;20052;-80
2023/07/26 05:42:39;;;;;;;30.98;27.38;;;;;;;29.41;100.00;99551.72;5042130;28;20057;-80
2023/07/26 05:45:07;;;;;;;31.90;27.77;;;;;;;29.67;100.00;99547.53;5038721;28;21869;-81
2023/07/26 05:47:37;;;;;;;29.52;24.25;;;;;;;29.76;100.00;99536.38;5043172;28;20497;-80
2023/07/26 05:50:05;;;;;;;31.00;26.33;;;;;;;29.78;100.00;99547.75;5039362;28;20052;-80
2023/07/26 05:52:32;;;;;;;28.52;25.42;;;;;;;30.01;100.00;99550.47;5037204;28;20053;-80
2023/07/26 05:54:59;;;;;;;29.05;24.00;;;;;;;30.11;100.00;99547.16;5042082;28;20049;-80
2023/07/26 05:57:27;;;;;;;30.45;24.38;;;;;;;30.33;100.00;99557.31;5039227;28;20126;-79
2023/07/26 05:59:54;;;;;;;28.92;24.38;;;;;;;30.36;100.00;99555.78;5045450;28;20495;-80
2023/07/26 06:02:21;;;;;;;29.42;25.02;;;;;;;30.34;100.00;99553.41;5046419;28;20110;-81
2023/07/26 06:04:48;;;;;;;32.85;24.88;;;;;;;30.51;100.00;99548.59;5045083;28;20049;-80
2023/07/26 06:07:16;;;;;;;31.75;24.83;;;;;;;30.69;100.00;99548.84;5036860;28;20052;-80
2023/07/26 06:09:43;;;;;;;30.88;25.50;;;;;;;30.78;100.00;99550.19;5044303;28;20057;-80
2023/07/26 06:12:10;;;;;;;30.27;25.00;;;;;;;30.90;100.00;99556.63;5044939;28;20060;-80
2023/07/26 06:14:38;;;;;;;30.10;24.75;;;;;;;31.12;100.00;99544.75;5046269;28;20045;-80
2023/07/26 06:17:06;;;;;;;29.83;26.65;;;;;;;31.23;100.00;99533.94;5045440;28;20132;-80
2023/07/26 06:19:33;;;;;;;29.40;26.40;;;;;;;31.35;100.00;99538.38;5045284;28;20041;-80
2023/07/26 06:22:00;;;;;;;31.23;28.00;;;;;;;31.47;100.00;99552.66;5044715;28;20049;-81
2023/07/26 06:24:27;;;;;;;39.65;35.60;;;;;;;31.50;100.00;99534.66;5046914;28;20285;-80
2023/07/26 06:26:54;;;;;;;35.15;32.00;;;;;;;31.53;100.00;99535.84;5045873;28;20052;-81
2023/07/26 06:29:22;;;;;;;37.88;34.05;;;;;;;31.56;100.00;99538.66;5046234;28;20041;-81
2023/07/26 06:31:52;;;;;;;35.75;32.40;;;;;;;31.71;100.00;99537.63;5045398;28;20526;-81
2023/07/26 06:34:19;;;;;;;36.17;32.83;;;;;;;31.91;100.00;99527.25;5045039;28;20041;-81
2023/07/26 06:36:46;;;;;;;39.30;35.88;;;;;;;32.14;100.00;99524.31;5041701;28;20065;-81
2023/07/26 06:39:13;;;;;;;43.78;40.58;;;;;;;32.44;100.00;99522.53;5043474;28;20128;-80
2023/07/26 06:41:40;;;;;;;40.55;37.20;;;;;;;32.40;100.00;99528.78;5039541;28;20545;-78
2023/07/26 06:44:07;;;;;;;37.55;33.75;;;;;;;32.43;100.00;99530.00;5041910;28;20409;-80
2023/07/26 06:46:34;;;;;;;36.45;33.17;;;;;;;32.59;100.00;99524.25;5042906;28;20053;-80
2023/07/26 06:49:03;;;;;;;33.38;30.27;;;;;;;32.77;100.00;99522.41;5045842;28;20460;-80
2023/07/26 06:51:29;;;;;;;33.40;30.45;;;;;;;33.01;100.00;99529.22;5045614;28;20045;-80
2023/07/26 06:53:56;;;;;;;31.45;28.42;;;;;;;33.09;100.00;99527.28;5046143;28;20063;-81
2023/07/26 06:56:23;;;;;;;33.95;30.65;;;;;;;33.27;100.00;99530.88;5046323;28;20045;-80
2023/07/26 06:58:53;;;;;;;32.83;29.50;;;;;;;33.37;100.00;99525.81;5046669;28;20048;-80
2023/07/26 07:01:22;;;;;;;30.67;27.42;;;;;;;33.32;100.00;99521.47;5045744;28;20542;-80
2023/07/26 07:03:51;;;;;;;31.30;28.27;;;;;;;33.29;100.00;99520.28;5041451;28;20052;-80
2023/07/26 07:06:21;;;;;;;31.23;28.23;;;;;;;33.35;100.00;99522.66;5045786;28;20049;-80
2023/07/26 07:08:48;;;;;;;31.52;28.50;;;;;;;33.30;100.00;99521.84;5045888;28;20041;-80
2023/07/26 07:11:15;;;;;;;31.73;27.60;;;;;;;33.72;100.00;99519.63;5045022;28;20055;-80
2023/07/26 07:13:42;;;;;;;32.72;29.33;;;;;;;34.33;94.12;99525.94;5046295;28;20451;-80
2023/07/26 07:16:09;;;;;;;32.70;28.33;;;;;;;34.72;86.40;99521.56;5044899;28;20055;-80
2023/07/26 07:18:36;;;;;;;33.00;29.80;;;;;;;33.85;100.00;99507.03;5041639;28;20060;-80
2023/07/26 07:21:03;;;;;;;32.40;29.35;;;;;;;33.30;100.00;99516.34;5039776;28;21396;-80
2023/07/26 07:23:31;;;;;;;31.60;28.65;;;;;;;33.80;100.00;99514.91;5039242;28;20049;-80
2023/07/26 07:25:59;;;;;;;34.65;29.90;;;;;;;34.15;100.00;99511.41;5041288;28;20053;-80
2023/07/26 07:28:25;;;;;;;32.47;29.20;;;;;;;34.79;93.06;99508.53;5037005;28;20105;-80
2023/07/26 07:30:52;;;;;;;42.80;38.97;;;;;;;35.05;78.65;99512.03;5039938;28;20651;-80
2023/07/26 07:33:19;;;;;;;45.38;41.42;;;;;;;35.70;62.82;99509.69;5042113;28;20045;-77
2023/07/26 07:35:46;;;;;;;42.22;38.42;;;;;;;35.66;63.56;99506.19;5044152;28;20139;-77
2023/07/26 07:38:16;;;;;;;40.03;36.38;;;;;;;35.69;62.90;99508.91;5043236;28;20060;-77
2023/07/26 07:40:44;;;;;;;42.47;39.58;;;;;;;33.38;100.00;99511.66;5040381;28;20059;-77
2023/07/26 07:43:11;;;;;;;34.90;31.83;;;;;;;35.33;68.38;99500.06;5042490;28;20508;-77
2023/07/26 07:45:42;;;;;;;34.25;30.83;;;;;;;35.52;58.01;99509.78;5044902;28;20132;-78
2023/07/26 07:48:09;;;;;;;32.17;28.90;;;;;;;35.46;47.91;99514.94;5046638;28;20072;-77
2023/07/26 07:50:36;;;;;;;33.33;29.95;;;;;;;35.57;60.32;99508.63;5044565;28;20487;-77
2023/07/26 07:53:06;;;;;;;35.65;29.42;;;;;;;35.00;58.76;99502.16;5044175;28;20136;-79
2023/07/26 07:55:34;;;;;;;34.38;29.45;;;;;;;34.46;89.27;99493.25;5046293;28;20072;-77
2023/07/26 07:58:05;;;;;;;32.38;29.17;;;;;;;33.72;91.97;99490.13;5046524;28;20098;-77
2023/07/26 08:00:32;;;;;;;36.75;31.70;;;;;;;35.48;51.51;99492.47;5046951;28;20492;-80
2023/07/26 08:02:59;;;;;;;36.17;30.05;;;;;;;35.84;51.41;99489.50;5041358;28;20052;-81
2023/07/26 08:05:26;;;;;;;34.90;31.85;;;;;;;34.72;61.34;99505.03;5044330;28;20285;-80
2023/07/26 08:07:54;;;;;;;37.90;34.10;;;;;;;35.86;55.28;99492.59;5045730;28;20060;-80
2023/07/26 08:10:21;;;;;;;36.63;33.38;;;;;;;33.67;84.73;99478.72;5045662;28;20449;-79
2023/07/26 08:12:48;;;;;;;34.22;30.90;;;;;;;34.16;60.76;99493.69;5045944;28;20049;-80
2023/07/26 08:15:16;;;;;;;36.20;32.45;;;;;;;36.07;47.81;99491.66;5045655;28;20128;-80
2023/07/26 08:17:43;;;;;;;34.78;31.38;;;;;;;36.27;41.95;99489.13;5034521;28;20057;-77
2023/07/26 08:20:12;;;;;;;35.58;31.95;;;;;;;36.43;41.53;99484.63;5045507;28;20128;-77
2023/07/26 08:22:39;;;;;;;35.08;31.92;;;;;;;34.92;72.00;99495.13;5047832;28;20049;-77
2023/07/26 08:25:07;;;;;;;35.38;31.98;;;;;;;34.08;54.79;99486.63;5048411;28;20565;-78
2023/07/26 08:27:36;;;;;;;39.13;35.05;;;;;;;36.37;51.70;99491.78;5049727;28;20047;-78
2023/07/26 08:30:03;;;;;;;37.45;32.50;;;;;;;35.96;51.01;99478.72;5049531;28;20060;-77
2023/07/26 08:32:32;;;;;;;33.53;29.88;;;;;;;34.92;64.00;99489.59;5048042;28;20053;-78
2023/07/26 08:34:58;;;;;;;34.83;31.33;;;;;;;35.28;50.94;99481.97;5039931;28;20513;-78
2023/07/26 08:37:26;;;;;;;34.35;30.92;;;;;;;34.79;69.71;99486.47;5041291;28;20072;-78
2023/07/26 08:39:53;;;;;;;35.90;32.40;;;;;;;35.76;49.92;99488.75;5046228;28;20053;-78
2023/07/26 08:42:21;;;;;;;35.80;32.22;;;;;;;36.02;48.18;99479.06;5037478;28;20501;-78
2023/07/26 08:44:53;;;;;;;34.60;30.67;;;;;;;35.86;45.47;99492.59;5048025;28;20509;-81
2023/07/26 08:47:23;;;;;;;39.35;33.30;;;;;;;34.03;66.16;99489.75;5039941;28;20048;-81
2023/07/26 08:49:52;;;;;;;31.88;28.88;;;;;;;33.79;78.21;99480.28;5043537;28;20084;-80
2023/07/26 08:52:20;;;;;;;29.15;26.10;;;;;;;34.49;68.84;99492.44;5039255;28;20045;-79
2023/07/26 08:54:50;;;;;;;30.95;27.75;;;;;;;36.35;42.48;99474.81;5047611;28;20567;-77
2023/07/26 08:57:20;;;;;;;34.78;27.17;;;;;;;36.59;42.12;99484.06;5046319;28;20037;-80
2023/07/26 08:59:49;;;;;;;29.13;26.05;;;;;;;36.61;43.69;99472.59;5041023;28;20064;-81
2023/07/26 09:02:17;;;;;;;36.83;26.92;;;;;;;36.19;60.27;99482.88;5044660;28;20048;-80
2023/07/26 09:04:46;;;;;;;30.75;27.45;;;;;;;36.57;43.21;99477.38;5047025;28;20107;-80
2023/07/26 09:07:15;;;;;;;35.97;32.38;;;;;;;37.40;41.18;99477.13;5037939;28;20136;-81
2023/07/26 09:09:42;;;;;;;36.13;31.88;;;;;;;36.71;53.21;99480.00;5037152;28;20505;-80
2023/07/26 09:12:09;;;;;;;39.25;30.27;;;;;;;36.78;52.71;99473.59;5038116;28;20370;-80
2023/07/26 09:14:36;;;;;;;35.55;28.55;;;;;;;36.88;42.03;99467.13;5040741;28;20041;-79
2023/07/26 09:17:05;;;;;;;33.55;29.83;;;;;;;37.22;42.93;99471.84;5040125;28;20140;-80
2023/07/26 09:19:34;;;;;;;31.88;28.45;;;;;;;36.73;42.65;99458.22;5035061;28;20045;-77
2023/07/26 09:22:03;;;;;;;36.40;31.00;;;;;;;36.24;49.41;99461.09;4687653;28;9999747;-77
2023/07/26 09:24:33;;;;;;;35.70;31.80;;;;;;;36.36;56.21;99468.09;5041216;28;20041;-77
2023/07/26 09:27:06;;;;;;;34.75;30.63;;;;;;;37.43;43.15;99465.19;5037249;28;20048;-77
2023/07/26 09:29:33;;;;;;;39.63;30.15;;;;;;;37.72;41.02;99462.81;5042385;28;20041;-78
2023/07/26 09:32:00;;;;;;;33.63;29.98;;;;;;;36.79;55.27;99470.41;5039584;28;20052;-80
2023/07/26 09:34:29;;;;;;;32.40;28.83;;;;;;;36.23;58.27;99461.53;5040296;28;20919;-78
2023/07/26 09:36:58;;;;;;;38.08;28.33;;;;;;;37.36;42.77;99455.81;5034471;28;20049;-77
2023/07/26 09:39:27;;;;;;;39.53;28.25;;;;;;;37.67;36.81;99444.66;5041565;28;20524;-81
2023/07/26 09:42:05;;;;;;;30.25;27.20;;;;;;;35.72;61.95;99447.34;5041017;28;20049;-77
2023/07/26 09:44:33;;;;;;;37.58;33.30;;;;;;;36.54;52.41;99445.81;5040888;28;20525;-78
2023/07/26 09:47:00;;;;;;;35.50;32.13;;;;;;;36.27;46.95;99436.63;5040906;28;20067;-78
2023/07/26 09:49:29;;;;;;;32.70;29.35;;;;;;;37.89;38.31;99442.34;5041234;28;20436;-78
2023/07/26 09:51:59;;;;;;;38.35;31.52;;;;;;;36.70;53.13;99436.91;5036452;28;20045;-77
2023/07/26 09:54:28;;;;;;;37.90;32.40;;;;;;;36.98;44.50;99444.09;5040395;28;20798;-78
2023/07/26 09:56:56;;;;;;;36.67;33.22;;;;;;;36.32;58.78;99442.47;5041284;28;20106;-78
2023/07/26 09:59:27;;;;;;;36.92;31.52;;;;;;;36.77;46.41;99436.06;5036164;28;20049;-78
2023/07/26 10:01:56;;;;;;;36.28;32.05;;;;;;;38.52;34.26;99435.28;5042834;28;20084;-78
2023/07/26 10:04:27;;;;;;;39.15;35.10;;;;;;;38.50;34.96;99419.06;5041298;28;20461;-78
2023/07/26 10:06:56;;;;;;;36.33;32.70;;;;;;;37.23;51.09;99431.91;5038596;28;20049;-80
2023/07/26 10:09:25;;;;;;;39.33;35.13;;;;;;;37.69;40.67;99435.97;5039815;28;20067;-80
2023/07/26 10:11:54;;;;;;;33.22;29.90;;;;;;;37.03;39.85;99431.78;5043083;28;20059;-80
2023/07/26 10:14:24;;;;;;;36.10;32.38;;;;;;;36.58;49.88;99427.19;5039505;28;20075;-80
2023/07/26 10:16:55;;;;;;;31.63;28.52;;;;;;;36.08;47.53;99418.66;5042832;28;20041;-79
2023/07/26 10:19:25;;;;;;;;;;;;;;;35.50;46.97;99410.06;5040059;28;20068;-80
2023/07/26 10:21:52;;;;;;;32.53;29.40;;;;;;;35.75;59.18;99412.63;5037152;28;19933;-81
2023/07/26 10:24:23;;;;;;;34.47;30.23;;;;;;;36.49;51.49;99415.81;5038326;28;20422;-80
2023/07/26 10:26:50;;;;;;;32.92;29.00;;;;;;;36.74;53.09;99410.03;5040958;28;20562;-80
2023/07/26 10:29:18;;;;;;;35.97;32.13;;;;;;;36.03;52.10;99417.13;5037436;28;20045;-80
2023/07/26 10:31:45;;;;;;;38.15;32.15;;;;;;;35.82;57.66;99389.69;5040238;28;20449;-80
2023/07/26 10:34:21;;;;;;;35.00;31.50;;;;;;;35.95;45.51;99390.75;5039969;28;20520;-80
2023/07/26 10:36:50;;;;;;;37.92;34.05;;;;;;;35.10;62.47;99388.25;5043682;28;20076;-80
2023/07/26 10:39:16;;;;;;;35.78;32.20;;;;;;;37.66;39.78;99379.41;5039382;28;20080;-77
2023/07/26 10:41:50;;;;;;;32.72;29.23;;;;;;;38.08;37.65;99381.88;5040707;28;20049;-78
2023/07/26 10:44:17;;;;;;;36.08;30.45;;;;;;;35.29;62.81;99377.88;5031817;28;20077;-78
2023/07/26 10:46:53;;;;;;;32.03;28.63;;;;;;;33.83;79.85;99391.03;5034828;28;20056;-80
2023/07/26 10:49:26;;;;;;;39.65;30.17;;;;;;;37.79;40.49;99385.94;5040308;28;20041;-80
2023/07/26 10:51:58;;;;;;;32.45;29.20;;;;;;;36.44;53.78;99378.38;5043813;28;20440;-81
2023/07/26 10:54:39;;;;;;;35.28;28.92;;;;;;;38.05;37.22;99377.94;5043057;28;20042;-80
2023/07/26 10:57:23;;;;;;;34.60;28.92;;;;;;;37.83;40.61;99374.00;5042293;28;20060;-78
2023/07/26 11:00:01;;;;;;;32.55;29.33;;;;;;;37.73;38.45;99362.66;5037506;28;20041;-77
2023/07/26 11:02:39;;;;;;;37.90;29.90;;;;;;;36.46;48.71;99372.41;5037894;28;20045;-78
2023/07/26 11:05:11;;;;;;;37.28;30.17;;;;;;;38.35;34.06;99362.31;5040165;28;21745;-77
2023/07/26 11:07:58;;;;;;;35.55;28.02;;;;;;;37.19;48.51;99371.06;5037926;28;20052;-81
2023/07/26 11:10:28;;;;;;;35.50;28.38;;;;;;;37.96;38.32;99361.88;5041961;28;20053;-81
2023/07/26 11:13:10;;;;;;;44.05;33.63;;;;;;;38.62;35.32;99368.50;5040286;28;20073;-81
2023/07/26 11:15:39;;;;;;;46.90;33.30;;;;;;;38.60;35.21;99357.03;5037738;28;20434;-80